Terminal Aerodrome Forecast
Issued by NWS

Home | Current Version | Previous Version | Text Only | Print | Product List | Glossary On
Versions: 1 2 3 4 5 6 7 8 9 10 11 12 13 14 15 16 17 18 19 20 21 22 23 24 25 26 27 28 29 30 31
000
FTUS44 KHGX 302102 AAA
TAFLBX
TAF AMD
KLBX 302102Z 3021/0118 14012KT P6SM VCTS SCT025CB BKN030
     FM302200 13008KT P6SM SCT050 SCT250
     FM010400 16005KT 6SM BR SCT015 SCT250
     FM011000 16005KT 4SM BR BKN015
     FM011300 18007KT P6SM SCT025 SCT250=

USA.gov is the U.S. government's official web portal to all federal, state and local government web resources and services.